createdAt,value
2023-04-19T00:02:42.957Z,3.00
2023-04-19T00:05:46.880Z,3.20
2023-04-19T00:08:50.244Z,2.80
2023-04-19T00:11:53.632Z,3.10
2023-04-19T00:14:56.151Z,2.90
2023-04-19T00:17:59.394Z,2.80
2023-04-19T00:21:02.957Z,3.03
2023-04-19T00:24:05.854Z,2.70
2023-04-19T00:27:09.373Z,2.83
2023-04-19T00:30:12.552Z,3.33
2023-04-19T00:33:15.958Z,3.20
2023-04-19T00:36:19.278Z,3.00
2023-04-19T00:39:24.484Z,3.03
2023-04-19T00:42:27.043Z,2.85
2023-04-19T00:45:32.562Z,2.70
2023-04-19T00:48:39.033Z,2.83
2023-04-19T00:51:41.986Z,3.58
2023-04-19T00:54:46.848Z,2.70
2023-04-19T00:57:49.407Z,2.78
2023-04-19T01:00:52.890Z,2.90
2023-04-19T01:03:56.056Z,3.00
2023-04-19T01:06:59.381Z,2.95
2023-04-19T01:10:03.514Z,2.83
2023-04-19T01:13:06.218Z,3.00
2023-04-19T01:16:08.969Z,3.80
2023-04-19T01:19:12.319Z,3.03
2023-04-19T01:22:25.257Z,2.85
2023-04-19T01:25:27.800Z,2.88
2023-04-19T01:28:30.887Z,3.10
2023-04-19T01:31:34.573Z,2.80
2023-04-19T01:34:40.296Z,2.60
2023-04-19T01:37:43.097Z,2.67
2023-04-19T01:40:46.832Z,2.65
2023-04-19T01:43:49.492Z,2.63
2023-04-19T01:46:52.926Z,2.93
2023-04-19T01:49:56.508Z,2.53
2023-04-19T01:53:00.200Z,2.42
2023-04-19T01:56:02.791Z,2.47
2023-04-19T01:59:05.543Z,2.90
2023-04-19T02:02:09.423Z,2.50
2023-04-19T02:05:12.186Z,2.57
2023-04-19T02:08:15.555Z,2.70
2023-04-19T02:11:18.231Z,3.00
2023-04-19T02:14:20.791Z,3.00
2023-04-19T02:17:26.786Z,3.00
2023-04-19T02:20:29.520Z,3.07
2023-04-19T02:23:33.435Z,3.17
2023-04-19T02:26:36.913Z,3.30
2023-04-19T02:29:40.673Z,3.42
2023-04-19T02:32:44.042Z,3.57
2023-04-19T02:35:48.007Z,3.20
2023-04-19T02:38:50.897Z,3.70
2023-04-19T02:41:57.374Z,3.80
2023-04-19T02:44:59.910Z,3.78
2023-04-19T02:48:02.866Z,3.80
2023-04-19T02:51:05.643Z,4.00
2023-04-19T02:54:11.392Z,3.97
2023-04-19T02:57:15.513Z,4.05
2023-04-19T03:00:19.403Z,4.63
2023-04-19T03:03:35.531Z,4.67
2023-04-19T03:06:38.214Z,4.60
2023-04-19T03:09:41.025Z,4.90
2023-04-19T03:12:43.692Z,4.88
2023-04-19T03:15:47.666Z,5.18
2023-04-19T03:18:51.957Z,6.43
2023-04-19T03:21:59.975Z,5.30
2023-04-19T03:25:07.317Z,5.00
2023-04-19T03:28:10.668Z,5.57
2023-04-19T03:31:37.294Z,5.10
2023-04-19T03:34:41.507Z,5.50
2023-04-19T03:37:45.004Z,5.13
2023-04-19T03:40:47.996Z,5.30
2023-04-19T03:43:52.776Z,5.55
2023-04-19T03:46:55.974Z,5.43
2023-04-19T03:50:02.706Z,5.20
2023-04-19T03:53:08.032Z,5.47
2023-04-19T03:56:11.532Z,5.50
2023-04-19T03:59:15.027Z,5.45
2023-04-19T04:02:19.646Z,5.03
2023-04-19T04:05:22.505Z,5.70
2023-04-19T04:08:25.235Z,5.10
2023-04-19T04:11:28.645Z,5.30
2023-04-19T04:14:31.474Z,5.88
2023-04-19T04:17:36.070Z,5.10
2023-04-19T04:20:39.132Z,5.50
2023-04-19T04:23:47.279Z,5.73
2023-04-19T04:27:00.801Z,5.40
2023-04-19T04:30:07.640Z,5.20
2023-04-19T04:33:12.027Z,5.35
2023-04-19T04:36:16.433Z,4.83
2023-04-19T04:39:21.127Z,4.83
2023-04-19T04:42:23.664Z,5.47
2023-04-19T04:45:29.238Z,5.53
2023-04-19T04:48:32.102Z,4.65
2023-04-19T04:51:34.702Z,5.07
2023-04-19T04:54:37.505Z,4.50
2023-04-19T04:57:43.610Z,4.88
2023-04-19T05:00:52.165Z,5.50
2023-04-19T05:03:55.714Z,5.47
2023-04-19T05:06:58.666Z,4.90
2023-04-19T05:10:04.282Z,4.50
2023-04-19T05:13:16.680Z,4.55
2023-04-19T05:16:20.394Z,5.07
2023-04-19T05:19:24.693Z,4.93
2023-04-19T05:22:33.284Z,5.00
2023-04-19T05:25:37.231Z,4.60
2023-04-19T05:28:41.064Z,5.15
2023-04-19T05:31:57.920Z,4.78
2023-04-19T05:35:26.036Z,5.10
2023-04-19T05:38:33.626Z,4.93
2023-04-19T05:41:40.088Z,4.90
2023-04-19T05:44:48.922Z,5.00
2023-04-19T05:48:02.692Z,4.90
2023-04-19T05:51:06.476Z,5.07
2023-04-19T05:54:36.359Z,4.57
2023-04-19T05:57:49.950Z,5.10
2023-04-19T06:01:05.754Z,4.82
2023-04-19T06:04:15.236Z,5.13
2023-04-19T06:07:30.867Z,5.35
2023-04-19T06:10:51.848Z,5.10
2023-04-19T06:14:03.847Z,4.87
2023-04-19T06:17:11.909Z,5.00
2023-04-19T06:20:17.243Z,5.95
2023-04-19T06:23:29.289Z,6.32
2023-04-19T06:26:35.836Z,5.50
2023-04-19T06:29:43.523Z,5.17
2023-04-19T06:32:51.858Z,5.70
2023-04-19T06:36:01.679Z,5.30
2023-04-19T06:39:04.856Z,4.65
2023-04-19T06:42:12.113Z,4.90
2023-04-19T06:45:18.452Z,5.80
2023-04-19T06:48:22.406Z,4.80
2023-04-19T06:51:34.067Z,4.70
2023-04-19T06:54:51.640Z,5.20
2023-04-19T06:57:57.105Z,4.70
2023-04-19T07:01:11.925Z,3.97
2023-04-19T07:04:15.728Z,5.60
2023-04-19T07:07:19.639Z,4.35
2023-04-19T07:10:22.770Z,3.90
2023-04-19T07:13:26.775Z,4.33
2023-04-19T07:16:30.499Z,4.10
2023-04-19T07:19:35.691Z,3.90
2023-04-19T07:22:38.615Z,4.10
2023-04-19T07:25:41.745Z,3.70
2023-04-19T07:28:46.007Z,3.17
2023-04-19T07:32:01.591Z,3.33
2023-04-19T07:35:06.015Z,2.63
2023-04-19T07:38:08.886Z,2.83
2023-04-19T07:41:12.953Z,3.30
2023-04-19T07:44:20.505Z,3.23
2023-04-19T07:47:26.057Z,3.83
2023-04-19T07:50:36.969Z,4.10
2023-04-19T07:53:57.691Z,3.40
2023-04-19T07:57:10.939Z,3.22
2023-04-19T08:00:15.618Z,3.37
2023-04-19T08:03:23.329Z,3.13
2023-04-19T08:06:27.082Z,3.03
2023-04-19T08:09:30.503Z,3.30
2023-04-19T08:12:40.500Z,3.30
2023-04-19T08:18:55.360Z,3.23
2023-04-19T08:21:58.748Z,3.42
2023-04-19T08:25:01.561Z,2.92
2023-04-19T08:28:08.086Z,2.95
2023-04-19T08:31:11.314Z,2.77
2023-04-19T08:34:15.090Z,2.50
2023-04-19T08:37:17.925Z,2.53
2023-04-19T08:40:33.220Z,2.83
2023-04-19T08:44:01.162Z,2.60
2023-04-19T08:47:27.294Z,2.60
2023-04-19T08:50:45.253Z,2.50
2023-04-19T08:53:52.537Z,2.65
2023-04-19T08:57:02.241Z,2.70
2023-04-19T09:00:09.073Z,2.85
2023-04-19T09:03:15.403Z,3.30
2023-04-19T09:06:19.003Z,3.40
2023-04-19T09:09:37.218Z,3.15
2023-04-19T09:12:59.278Z,3.83
2023-04-19T09:16:02.442Z,4.00
2023-04-19T09:19:19.529Z,4.53
2023-04-19T09:22:30.951Z,4.17
2023-04-19T09:25:55.154Z,4.07
2023-04-19T09:29:13.277Z,4.63
2023-04-19T09:32:18.595Z,4.53
2023-04-19T09:35:59.310Z,5.23
2023-04-19T09:39:21.462Z,6.00
2023-04-19T09:45:55.051Z,5.35
2023-04-19T09:49:30.258Z,5.07
2023-04-19T09:52:45.371Z,4.57
2023-04-19T09:56:00.429Z,4.60
2023-04-19T09:59:23.874Z,4.43
2023-04-19T10:02:45.428Z,4.63
2023-04-19T10:06:27.826Z,4.80
2023-04-19T10:09:51.719Z,6.33
2023-04-19T10:13:15.900Z,5.23
2023-04-19T10:16:22.301Z,6.22
2023-04-19T10:19:35.741Z,5.68
2023-04-19T10:22:44.625Z,6.35
2023-04-19T10:25:48.686Z,6.70
2023-04-19T10:28:54.526Z,6.40
2023-04-19T10:31:57.659Z,6.47
2023-04-19T10:35:08.539Z,6.38
2023-04-19T10:38:16.372Z,6.78
2023-04-19T10:41:20.154Z,6.20
2023-04-19T10:44:23.184Z,6.40
2023-04-19T10:47:42.243Z,5.15
2023-04-19T10:51:03.525Z,5.50
2023-04-19T10:54:07.794Z,5.50
2023-04-19T10:57:12.735Z,5.77
2023-04-19T11:00:22.319Z,7.93
2023-04-19T11:03:43.809Z,5.05
2023-04-19T11:06:55.517Z,4.90
2023-04-19T11:10:00.207Z,6.00
2023-04-19T11:13:03.146Z,5.57
2023-04-19T11:16:10.378Z,5.30
2023-04-19T11:19:18.546Z,5.50
2023-04-19T11:22:39.201Z,5.93
2023-04-19T11:25:46.395Z,5.20
2023-04-19T11:28:50.127Z,5.10
2023-04-19T11:31:56.176Z,6.03
2023-04-19T11:35:05.154Z,8.02
2023-04-19T11:38:09.299Z,8.10
2023-04-19T11:41:12.788Z,7.30
2023-04-19T11:44:20.174Z,7.43
2023-04-19T11:47:23.602Z,7.60
2023-04-19T11:50:40.358Z,8.20
2023-04-19T11:53:43.212Z,8.00
2023-04-19T11:57:07.551Z,7.30
2023-04-19T12:00:37.944Z,6.60
2023-04-19T12:04:10.196Z,7.40
2023-04-19T12:07:22.070Z,21.77
2023-04-19T12:10:25.604Z,7.70
2023-04-19T12:13:29.370Z,7.75
2023-04-19T12:16:32.818Z,9.40
2023-04-19T12:19:37.710Z,9.00
2023-04-19T12:22:43.827Z,9.32
2023-04-19T12:25:49.102Z,9.45
2023-04-19T12:28:52.213Z,9.80
2023-04-19T12:31:55.053Z,9.63
2023-04-19T12:34:57.990Z,9.87
2023-04-19T12:38:02.747Z,9.77
2023-04-19T12:41:16.519Z,10.10
2023-04-19T12:44:30.714Z,9.80
2023-04-19T12:47:37.245Z,9.47
2023-04-19T12:50:43.402Z,9.87
2023-04-19T12:53:54.485Z,9.35
2023-04-19T12:57:04.358Z,9.50
2023-04-19T13:00:10.143Z,8.50
2023-04-19T13:03:13.703Z,9.03
2023-04-19T13:06:17.305Z,9.43
2023-04-19T13:09:20.039Z,9.40
2023-04-19T13:12:24.036Z,9.27
2023-04-19T13:15:26.973Z,9.05
2023-04-19T13:18:29.709Z,9.07
2023-04-19T13:21:33.326Z,9.00
2023-04-19T13:24:36.192Z,8.27
2023-04-19T13:27:39.049Z,8.30
2023-04-19T13:30:41.785Z,8.50
2023-04-19T13:33:44.524Z,7.73
2023-04-19T13:36:47.619Z,8.20
2023-04-19T13:39:51.751Z,8.77
2023-04-19T13:42:56.885Z,10.63
2023-04-19T13:45:59.987Z,11.93
2023-04-19T13:49:10.767Z,12.50
2023-04-19T13:52:26.388Z,11.90
2023-04-19T13:55:42.301Z,12.35
2023-04-19T13:58:49.245Z,11.60
2023-04-19T14:01:52.265Z,12.13
2023-04-19T16:35:18.422Z,4.07
2023-04-19T16:38:21.942Z,4.07
2023-04-19T16:41:24.704Z,3.60
2023-04-19T16:44:27.945Z,5.70
2023-04-19T16:47:31.877Z,4.00
2023-04-19T16:50:34.857Z,5.03
2023-04-19T16:53:38.111Z,4.67
2023-04-19T16:56:41.446Z,4.32
2023-04-19T16:59:44.081Z,4.38
2023-04-19T17:02:46.914Z,4.35
2023-04-19T17:05:49.616Z,4.57
2023-04-19T17:08:52.913Z,4.30
2023-04-19T17:11:58.317Z,4.38
2023-04-19T17:15:01.044Z,5.28
2023-04-19T17:18:04.700Z,5.25
2023-04-19T17:21:07.595Z,5.90
2023-04-19T17:24:11.154Z,6.40
2023-04-19T17:27:14.643Z,6.25
2023-04-19T17:30:17.250Z,6.70
2023-04-19T17:33:20.137Z,6.82
2023-04-19T17:36:23.593Z,6.80
2023-04-19T17:39:28.931Z,6.87
2023-04-19T17:42:31.462Z,6.70
2023-04-19T17:45:34.617Z,6.93
2023-04-19T17:48:37.439Z,7.80
2023-04-19T17:51:40.008Z,7.80
2023-04-19T17:54:42.581Z,7.90
2023-04-19T17:57:46.346Z,8.18
2023-04-19T18:00:48.951Z,7.75
2023-04-19T18:03:52.295Z,8.88
2023-04-19T18:06:55.109Z,8.70
2023-04-19T18:09:58.620Z,8.73
2023-04-19T18:13:02.177Z,8.18
2023-04-19T18:16:05.529Z,8.25
2023-04-19T18:19:08.169Z,8.07
2023-04-19T18:22:12.086Z,8.23
2023-04-19T18:25:14.792Z,8.13
2023-04-19T18:28:18.072Z,8.40
2023-04-19T18:31:22.582Z,7.80
2023-04-19T18:34:26.094Z,8.10
2023-04-19T18:37:30.950Z,7.80
2023-04-19T18:40:34.087Z,8.57
2023-04-19T18:43:36.681Z,7.20
2023-04-19T18:46:40.069Z,8.68
2023-04-19T18:49:52.751Z,7.55
2023-04-19T18:53:02.550Z,8.47
2023-04-19T18:56:09.512Z,8.47
2023-04-19T18:59:12.585Z,8.60
2023-04-19T19:02:16.722Z,8.63
2023-04-19T19:05:20.397Z,8.13
2023-04-19T19:08:23.377Z,8.77
2023-04-19T19:11:44.887Z,9.00
2023-04-19T19:14:48.935Z,8.90
2023-04-19T19:17:51.676Z,9.18
2023-04-19T19:21:00.269Z,9.65
2023-04-19T19:24:05.852Z,9.17
2023-04-19T19:27:09.461Z,9.37
2023-04-19T19:30:12.547Z,9.63
2023-04-19T19:33:17.115Z,9.20
2023-04-19T19:36:19.734Z,8.68
2023-04-19T19:39:22.334Z,8.97
2023-04-19T19:42:26.171Z,9.47
2023-04-19T19:45:29.947Z,9.88
2023-04-19T19:48:39.140Z,9.35
2023-04-19T19:51:57.508Z,9.13
2023-04-19T19:55:02.456Z,9.13
2023-04-19T20:01:11.733Z,9.07
2023-04-19T20:04:15.160Z,8.73
2023-04-19T20:07:37.389Z,8.73
2023-04-19T20:10:43.458Z,9.07
2023-04-19T20:13:46.133Z,9.07
2023-04-19T20:16:48.790Z,9.27
2023-04-19T20:19:54.624Z,9.15
2023-04-19T20:22:58.213Z,9.60
2023-04-19T20:26:01.849Z,8.87
2023-04-19T20:29:06.048Z,9.43
2023-04-19T20:32:08.624Z,9.63
2023-04-19T20:35:12.544Z,9.23
2023-04-19T20:38:16.220Z,9.10
2023-04-19T20:41:19.823Z,9.60
2023-04-19T20:44:23.329Z,9.40
2023-04-19T20:47:26.778Z,9.05
2023-04-19T20:50:30.321Z,9.40
2023-04-19T20:53:34.305Z,9.55
2023-04-19T20:56:37.832Z,9.30
2023-04-19T20:59:41.456Z,9.03
2023-04-19T21:02:44.839Z,9.15
2023-04-19T21:05:48.757Z,9.63
2023-04-19T21:08:51.639Z,8.98
2023-04-19T21:11:55.225Z,9.70
2023-04-19T21:15:01.235Z,9.17
2023-04-19T21:18:03.974Z,8.85
2023-04-19T21:21:07.968Z,9.43
2023-04-19T21:24:10.717Z,9.15
2023-04-19T21:27:14.231Z,9.30
2023-04-19T21:30:18.466Z,8.63
2023-04-19T21:33:21.358Z,8.70
2023-04-19T21:36:23.931Z,9.02
2023-04-19T21:39:26.657Z,9.23
2023-04-19T21:42:29.353Z,9.23
2023-04-19T21:45:31.882Z,9.67
2023-04-19T21:48:34.623Z,9.48
2023-04-19T21:51:37.616Z,9.35
2023-04-19T21:54:40.327Z,9.30
2023-04-19T21:57:43.849Z,9.57
2023-04-19T22:00:46.647Z,9.93
2023-04-19T22:03:49.442Z,9.20
2023-04-19T22:06:52.291Z,11.52
2023-04-19T22:09:57.775Z,11.07
2023-04-19T22:13:04.876Z,10.10
2023-04-19T22:16:08.395Z,10.03
2023-04-19T22:19:11.549Z,10.07
2023-04-19T22:22:15.575Z,9.63
2023-04-19T22:25:20.151Z,10.20
2023-04-19T22:28:23.448Z,9.73
2023-04-19T22:31:26.942Z,11.73
2023-04-19T22:34:31.046Z,10.18
2023-04-19T22:37:34.368Z,9.77
2023-04-19T22:40:38.028Z,10.75
2023-04-19T22:43:41.388Z,10.47
2023-04-19T22:46:44.008Z,9.70
2023-04-19T22:49:47.377Z,9.73
2023-04-19T22:52:51.572Z,9.55
2023-04-19T22:55:54.146Z,9.73
2023-04-19T22:58:57.568Z,9.27
2023-04-19T23:02:01.148Z,9.93
2023-04-19T23:05:06.050Z,10.00
2023-04-19T23:08:09.416Z,9.90
2023-04-19T23:11:13.858Z,10.13
2023-04-19T23:14:18.508Z,10.20
2023-04-19T23:17:21.975Z,9.97
2023-04-19T23:20:24.626Z,10.05
2023-04-19T23:23:27.560Z,9.63
2023-04-19T23:26:30.983Z,10.07
2023-04-19T23:29:34.462Z,10.53
2023-04-19T23:32:37.335Z,10.23
2023-04-19T23:35:40.817Z,9.52
2023-04-19T23:38:43.414Z,9.85
2023-04-19T23:41:46.304Z,10.20
2023-04-19T23:44:49.481Z,10.13
2023-04-19T23:47:53.002Z,10.03
2023-04-19T23:50:55.709Z,10.52
2023-04-19T23:53:58.981Z,10.25
2023-04-19T23:57:01.873Z,9.90
